createdAt,value
2018-06-14T00:01:00.162Z,12.90
2018-06-14T00:03:29.271Z,12.90
2018-06-14T00:05:58.295Z,12.90
2018-06-14T00:08:27.311Z,12.90
2018-06-14T00:10:56.896Z,12.90
2018-06-14T00:13:26.120Z,12.90
2018-06-14T00:15:55.172Z,12.90
2018-06-14T00:18:24.163Z,12.90
2018-06-14T00:20:53.266Z,12.80
2018-06-14T00:23:22.325Z,12.80
2018-06-14T00:25:51.321Z,12.80
2018-06-14T00:28:20.657Z,12.80
2018-06-14T00:30:49.777Z,12.90
2018-06-14T00:33:19.219Z,12.80
2018-06-14T00:35:49.061Z,12.90
2018-06-14T00:38:18.128Z,12.90
2018-06-14T00:40:47.170Z,12.80
2018-06-14T00:43:16.214Z,12.80
2018-06-14T00:45:46.024Z,12.80
2018-06-14T00:48:15.456Z,12.80
2018-06-14T00:50:44.457Z,12.80
2018-06-14T00:53:13.870Z,12.80
2018-06-14T00:55:43.409Z,12.80
2018-06-14T00:58:12.519Z,12.80
2018-06-14T01:00:41.666Z,12.80
2018-06-14T01:03:10.781Z,12.80
2018-06-14T01:05:40.281Z,12.80
2018-06-14T01:10:39.025Z,12.70
2018-06-14T01:13:09.188Z,12.70
2018-06-14T01:15:38.908Z,12.70
2018-06-14T01:18:08.056Z,12.70
2018-06-14T01:20:37.173Z,12.80
2018-06-14T01:23:06.342Z,12.80
2018-06-14T01:25:35.379Z,12.80
2018-06-14T01:28:04.473Z,12.70
2018-06-14T01:30:33.556Z,12.70
2018-06-14T01:33:03.210Z,12.70
2018-06-14T01:35:32.321Z,12.70
2018-06-14T01:38:12.408Z,12.70
2018-06-14T01:40:41.961Z,12.70
2018-06-14T01:43:10.993Z,12.70
2018-06-14T01:45:40.001Z,12.70
2018-06-14T01:48:09.064Z,12.70
2018-06-14T01:50:38.256Z,12.70
2018-06-14T01:53:07.284Z,12.70
2018-06-14T01:55:36.375Z,12.70
2018-06-14T01:58:05.553Z,12.70
2018-06-14T02:00:34.713Z,12.70
2018-06-14T02:03:05.146Z,12.70
2018-06-14T02:05:34.312Z,12.60
2018-06-14T02:08:03.900Z,12.60
2018-06-14T02:10:33.324Z,12.60
2018-06-14T02:13:02.865Z,12.60
2018-06-14T02:15:32.423Z,12.60
2018-06-14T02:18:01.597Z,12.60
2018-06-14T02:20:30.692Z,12.60
2018-06-14T02:23:00.184Z,12.60
2018-06-14T02:25:29.156Z,12.60
2018-06-14T02:27:58.877Z,12.60
2018-06-14T02:30:28.596Z,12.60
2018-06-14T02:32:57.535Z,12.60
2018-06-14T02:35:26.611Z,12.60
2018-06-14T02:37:55.580Z,12.60
2018-06-14T02:40:24.525Z,12.50
2018-06-14T02:42:53.411Z,12.50
2018-06-14T02:45:22.385Z,12.50
2018-06-14T02:47:52.423Z,12.50
2018-06-14T02:50:21.581Z,12.50
2018-06-14T02:52:51.521Z,12.50
2018-06-14T02:55:21.317Z,12.60
2018-06-14T02:57:51.120Z,12.60
2018-06-14T03:00:20.111Z,12.50
2018-06-14T03:02:49.216Z,12.50
2018-06-14T03:05:18.305Z,12.50
2018-06-14T03:07:47.860Z,12.50
2018-06-14T03:10:17.024Z,12.50
2018-06-14T03:12:46.021Z,12.50
2018-06-14T03:15:15.580Z,12.50
2018-06-14T03:17:45.470Z,12.50
2018-06-14T03:20:14.557Z,12.50
2018-06-14T03:22:43.704Z,12.50
2018-06-14T03:25:13.356Z,12.50
2018-06-14T03:30:11.047Z,12.50
2018-06-14T03:32:40.672Z,12.50
2018-06-14T03:35:10.093Z,12.50
2018-06-14T03:37:39.549Z,12.50
2018-06-14T03:40:09.464Z,12.50
2018-06-14T03:42:44.701Z,12.50
2018-06-14T03:45:18.207Z,12.50
2018-06-14T03:47:48.762Z,12.50
2018-06-14T03:50:17.984Z,12.50
2018-06-14T03:52:47.421Z,12.50
2018-06-14T03:55:16.380Z,12.50
2018-06-14T03:57:45.524Z,12.50
2018-06-14T04:02:43.708Z,12.50
2018-06-14T04:05:13.048Z,12.50
2018-06-14T04:07:42.614Z,12.50
2018-06-14T04:10:11.796Z,12.50
2018-06-14T04:12:41.844Z,12.60
2018-06-14T04:15:10.978Z,12.60
2018-06-14T04:17:40.092Z,12.60
2018-06-14T04:20:09.191Z,12.60
2018-06-14T04:22:39.004Z,12.60
2018-06-14T04:25:08.177Z,12.60
2018-06-14T04:27:37.627Z,12.60
2018-06-14T04:30:07.212Z,12.60
2018-06-14T04:32:36.231Z,12.60
2018-06-14T04:35:06.156Z,12.60
2018-06-14T04:37:36.468Z,12.50
2018-06-14T04:40:05.632Z,12.50
2018-06-14T04:42:34.768Z,12.50
2018-06-14T04:45:03.944Z,12.40
2018-06-14T04:47:33.103Z,12.40
2018-06-14T04:50:02.268Z,12.30
2018-06-14T04:52:31.517Z,12.30
2018-06-14T04:55:00.750Z,12.30
2018-06-14T04:57:29.924Z,12.30
2018-06-14T04:59:59.371Z,12.30
2018-06-14T05:02:29.373Z,12.30
2018-06-14T05:04:58.406Z,12.30
2018-06-14T05:07:27.640Z,12.40
2018-06-14T05:09:56.758Z,12.40
2018-06-14T05:12:25.820Z,12.40
2018-06-14T05:14:54.828Z,12.50
2018-06-14T05:17:23.908Z,12.50
2018-06-14T05:19:53.962Z,12.60
2018-06-14T05:22:23.121Z,12.60
2018-06-14T05:24:52.196Z,12.70
2018-06-14T05:27:21.663Z,12.80
2018-06-14T05:29:50.916Z,12.80
2018-06-14T05:32:20.692Z,12.90
2018-06-14T05:34:49.803Z,13.00
2018-06-14T05:37:19.867Z,13.10
2018-06-14T05:39:48.917Z,13.10
2018-06-14T05:42:17.946Z,13.20
2018-06-14T05:44:47.050Z,13.20
2018-06-14T05:47:16.812Z,13.30
2018-06-14T05:49:47.081Z,13.40
2018-06-14T05:52:17.352Z,13.40
2018-06-14T05:54:46.633Z,13.50
2018-06-14T05:57:15.755Z,13.60
2018-06-14T05:59:45.388Z,13.80
2018-06-14T06:02:14.416Z,13.90
2018-06-14T06:04:44.493Z,14.00
2018-06-14T06:07:13.594Z,14.10
2018-06-14T06:09:42.869Z,14.10
2018-06-14T06:12:12.036Z,14.20
2018-06-14T06:14:41.161Z,14.20
2018-06-14T06:17:10.384Z,14.30
2018-06-14T06:19:39.468Z,14.40
2018-06-14T06:22:08.545Z,14.40
2018-06-14T06:24:37.555Z,14.50
2018-06-14T06:27:06.736Z,14.50
2018-06-14T06:29:36.467Z,14.60
2018-06-14T06:32:05.948Z,14.70
2018-06-14T06:34:35.254Z,14.70
2018-06-14T06:37:04.348Z,14.70
2018-06-14T06:39:33.440Z,14.80
2018-06-14T06:42:03.439Z,14.80
2018-06-14T06:44:32.993Z,14.80
2018-06-14T06:47:02.951Z,14.90
2018-06-14T06:49:32.581Z,14.90
2018-06-14T06:52:01.862Z,15.00
2018-06-14T06:54:30.997Z,14.90
2018-06-14T06:57:00.074Z,15.00
2018-06-14T06:59:29.214Z,15.10
2018-06-14T07:01:58.264Z,15.10
2018-06-14T07:04:27.512Z,15.20
2018-06-14T07:06:56.561Z,15.40
2018-06-14T07:09:25.925Z,15.50
2018-06-14T07:11:54.970Z,15.70
2018-06-14T07:14:24.576Z,15.90
2018-06-14T07:16:53.677Z,16.10
2018-06-14T07:19:23.153Z,16.30
2018-06-14T07:21:52.329Z,16.50
2018-06-14T07:24:21.344Z,16.80
2018-06-14T07:26:51.024Z,17.20
2018-06-14T07:29:20.366Z,17.40
2018-06-14T07:31:49.373Z,17.50
2018-06-14T07:34:18.360Z,17.50
2018-06-14T07:36:47.445Z,17.40
2018-06-14T07:39:16.556Z,17.20
2018-06-14T07:41:45.669Z,17.20
2018-06-14T07:44:14.804Z,17.20
2018-06-14T07:46:43.833Z,17.00
2018-06-14T07:49:12.941Z,17.00
2018-06-14T07:51:42.152Z,16.90
2018-06-14T07:54:11.284Z,17.00
2018-06-14T07:56:40.533Z,17.00
2018-06-14T07:59:09.605Z,17.10
2018-06-14T08:01:38.750Z,17.00
2018-06-14T08:06:36.546Z,16.90
2018-06-14T08:09:07.648Z,17.00
2018-06-14T08:11:37.297Z,17.10
2018-06-14T08:14:06.452Z,17.30
2018-06-14T08:16:35.612Z,17.50
2018-06-14T08:19:04.968Z,17.60
2018-06-14T08:21:34.544Z,17.80
2018-06-14T08:24:03.653Z,17.90
2018-06-14T08:26:32.977Z,17.80
2018-06-14T08:29:02.047Z,17.90
2018-06-14T08:31:31.153Z,17.90
2018-06-14T08:34:00.218Z,18.10
2018-06-14T08:36:29.257Z,18.00
2018-06-14T08:38:58.541Z,18.10
2018-06-14T08:41:27.672Z,18.20
2018-06-14T08:43:56.819Z,18.30
2018-06-14T08:46:26.078Z,18.50
2018-06-14T08:48:56.002Z,18.60
2018-06-14T08:51:25.106Z,18.70
2018-06-14T08:53:54.216Z,18.60
2018-06-14T08:56:23.237Z,18.70
2018-06-14T08:58:52.564Z,18.80
2018-06-14T09:01:23.038Z,18.90
2018-06-14T09:03:59.423Z,18.90
2018-06-14T09:06:28.382Z,19.10
2018-06-14T09:08:57.496Z,19.20
2018-06-14T09:11:26.930Z,19.40
2018-06-14T09:13:56.593Z,19.50
2018-06-14T09:16:25.716Z,19.60
2018-06-14T09:18:55.005Z,19.70
2018-06-14T09:21:24.220Z,19.70
2018-06-14T09:23:53.203Z,19.70
2018-06-14T09:26:22.289Z,19.60
2018-06-14T09:28:51.381Z,19.50
2018-06-14T09:31:20.590Z,19.30
2018-06-14T09:33:49.653Z,19.40
2018-06-14T09:36:19.563Z,19.40
2018-06-14T09:38:48.920Z,19.40
2018-06-14T09:41:17.988Z,19.30
2018-06-14T09:43:47.113Z,19.20
2018-06-14T09:46:16.169Z,19.30
2018-06-14T09:48:45.559Z,19.30
2018-06-14T09:51:14.657Z,19.40
2018-06-14T09:53:43.784Z,19.40
2018-06-14T09:56:12.788Z,19.30
2018-06-14T09:58:41.824Z,19.40
2018-06-14T10:01:10.957Z,19.50
2018-06-14T10:03:40.060Z,19.60
2018-06-14T10:06:09.281Z,19.60
2018-06-14T10:08:38.408Z,19.70
2018-06-14T10:11:07.531Z,19.80
2018-06-14T10:13:36.670Z,19.80
2018-06-14T10:16:05.919Z,19.90
2018-06-14T10:18:35.040Z,19.80
2018-06-14T10:21:04.089Z,19.70
2018-06-14T10:23:33.437Z,19.70
2018-06-14T10:26:02.405Z,19.50
2018-06-14T10:28:31.481Z,19.30
2018-06-14T10:31:00.866Z,19.40
2018-06-14T10:33:30.720Z,19.40
2018-06-14T10:35:59.808Z,19.40
2018-06-14T10:38:29.030Z,19.40
2018-06-14T10:40:58.310Z,19.60
2018-06-14T10:43:27.398Z,19.80
2018-06-14T10:45:56.727Z,19.90
2018-06-14T10:48:25.828Z,20.10
2018-06-14T10:50:55.749Z,20.40
2018-06-14T10:53:24.837Z,20.50
2018-06-14T10:55:53.760Z,20.60
2018-06-14T10:58:23.056Z,20.60
2018-06-14T11:00:52.480Z,20.80
2018-06-14T11:03:22.244Z,20.90
2018-06-14T11:05:51.161Z,21.10
2018-06-14T11:08:20.636Z,21.20
2018-06-14T11:10:50.133Z,21.30
2018-06-14T11:13:19.241Z,21.30
2018-06-14T11:15:49.156Z,21.40
2018-06-14T11:18:18.328Z,21.50
2018-06-14T11:20:47.568Z,21.50
2018-06-14T11:23:17.437Z,21.30
2018-06-14T11:25:46.510Z,21.40
2018-06-14T11:28:15.841Z,21.30
2018-06-14T11:30:44.929Z,21.50
2018-06-14T11:33:14.155Z,21.80
2018-06-14T11:38:12.321Z,21.60
2018-06-14T11:40:41.306Z,21.80
2018-06-14T11:43:10.401Z,21.70
2018-06-14T11:45:39.401Z,21.80
2018-06-14T11:48:09.361Z,21.60
2018-06-14T11:50:38.745Z,21.50
2018-06-14T11:53:07.784Z,21.30
2018-06-14T11:55:37.237Z,21.10
2018-06-14T11:58:06.549Z,20.90
2018-06-14T12:00:35.604Z,20.90
2018-06-14T12:03:04.716Z,21.00
2018-06-14T12:05:33.797Z,20.90
2018-06-14T12:08:02.900Z,20.90
2018-06-14T12:10:32.198Z,21.10
2018-06-14T12:13:01.709Z,21.30
2018-06-14T12:15:31.004Z,21.30
2018-06-14T12:18:00.073Z,21.30
2018-06-14T12:20:29.302Z,21.30
2018-06-14T12:22:59.179Z,21.20
2018-06-14T12:25:28.406Z,21.30
2018-06-14T12:27:57.495Z,21.60
2018-06-14T12:30:26.988Z,21.70
2018-06-14T12:32:56.294Z,22.10
2018-06-14T12:35:25.375Z,22.50
2018-06-14T12:37:54.557Z,22.60
2018-06-14T12:40:23.525Z,22.60
2018-06-14T12:42:52.819Z,22.60
2018-06-14T12:45:22.036Z,22.70
2018-06-14T12:47:51.233Z,22.80
2018-06-14T12:50:20.451Z,23.40
2018-06-14T12:52:49.592Z,23.40
2018-06-14T12:55:18.664Z,23.20
2018-06-14T12:57:48.594Z,23.10
2018-06-14T13:00:17.699Z,23.30
2018-06-14T13:02:46.770Z,23.40
2018-06-14T13:05:16.499Z,23.40
2018-06-14T13:07:45.678Z,23.50
2018-06-14T13:10:15.740Z,23.50
2018-06-14T13:12:44.932Z,23.60
2018-06-14T13:17:42.988Z,23.00
2018-06-14T13:20:12.169Z,22.70
2018-06-14T13:22:41.829Z,22.40
2018-06-14T13:25:11.016Z,22.40
2018-06-14T13:27:40.324Z,22.40
2018-06-14T13:30:09.826Z,22.40
2018-06-14T13:32:38.877Z,22.40
2018-06-14T13:35:07.913Z,22.40
2018-06-14T13:37:37.260Z,22.40
2018-06-14T13:40:06.544Z,22.00
2018-06-14T13:42:36.101Z,21.90
2018-06-14T13:45:05.324Z,21.70
2018-06-14T13:47:34.849Z,21.50
2018-06-14T13:50:03.973Z,21.40
2018-06-14T13:52:33.134Z,21.40
2018-06-14T13:55:02.315Z,21.30
2018-06-14T13:57:31.373Z,21.40
2018-06-14T14:00:00.775Z,21.40
2018-06-14T14:02:30.388Z,21.40
2018-06-14T14:04:59.353Z,21.30
2018-06-14T14:07:29.220Z,21.40
2018-06-14T14:09:59.217Z,21.50
2018-06-14T14:12:28.630Z,21.60
2018-06-14T14:14:57.828Z,21.70
2018-06-14T14:17:26.780Z,21.50
2018-06-14T14:19:56.133Z,21.70
2018-06-14T14:22:25.066Z,21.80
2018-06-14T14:24:54.465Z,21.70
2018-06-14T14:27:23.583Z,21.80
2018-06-14T14:29:52.568Z,21.80
2018-06-14T14:32:21.669Z,21.80
2018-06-14T14:34:50.764Z,21.80
2018-06-14T14:37:19.668Z,21.90
2018-06-14T14:39:48.736Z,21.80
2018-06-14T14:42:17.836Z,21.70
2018-06-14T14:44:47.536Z,21.60
2018-06-14T14:47:17.340Z,21.50
2018-06-14T14:49:46.876Z,21.50
2018-06-14T14:52:15.777Z,21.40
2018-06-14T14:54:45.055Z,21.40
2018-06-14T14:57:14.026Z,21.50
2018-06-14T14:59:43.476Z,21.60
2018-06-14T15:02:12.454Z,21.60
2018-06-14T15:04:41.697Z,21.60
2018-06-14T15:07:10.740Z,21.50
2018-06-14T15:09:39.840Z,21.70
2018-06-14T15:12:09.364Z,21.90
2018-06-14T15:14:39.052Z,22.00
2018-06-14T15:17:08.122Z,22.00
2018-06-14T15:19:37.570Z,22.00
2018-06-14T15:22:06.521Z,21.90
2018-06-14T15:24:35.864Z,21.70
2018-06-14T15:27:05.192Z,21.50
2018-06-14T15:29:34.814Z,21.40
2018-06-14T15:32:03.825Z,21.30
2018-06-14T15:34:33.540Z,21.30
2018-06-14T15:39:32.317Z,21.20
2018-06-14T15:42:01.657Z,21.30
2018-06-14T15:44:30.744Z,21.20
2018-06-14T15:46:59.847Z,21.10
2018-06-14T15:49:29.211Z,21.00
2018-06-14T15:51:58.645Z,20.90
2018-06-14T15:54:27.653Z,20.70
2018-06-14T15:56:57.117Z,20.60
2018-06-14T15:59:26.263Z,20.30
2018-06-14T16:04:24.922Z,20.20
2018-06-14T16:06:54.030Z,20.00
2018-06-14T16:09:23.912Z,19.90
2018-06-14T16:11:54.347Z,19.90
2018-06-14T16:14:24.219Z,19.70
2018-06-14T16:16:53.553Z,19.70
2018-06-14T16:19:22.819Z,19.70
2018-06-14T16:21:52.771Z,19.60
2018-06-14T16:24:23.122Z,19.60
2018-06-14T16:26:52.271Z,19.70
2018-06-14T16:29:21.956Z,19.70
2018-06-14T16:31:52.328Z,19.70
2018-06-14T16:34:21.501Z,19.70
2018-06-14T16:36:51.236Z,19.70
2018-06-14T16:39:20.745Z,19.70
2018-06-14T16:41:50.296Z,19.70
2018-06-14T16:44:19.738Z,19.70
2018-06-14T16:46:49.204Z,19.60
2018-06-14T16:49:19.071Z,19.60
2018-06-14T16:51:49.394Z,19.50
2018-06-14T16:54:19.058Z,19.40
2018-06-14T16:56:48.849Z,19.30
2018-06-14T16:59:18.386Z,19.30
2018-06-14T17:01:48.041Z,19.30
2018-06-14T17:04:22.586Z,19.20
2018-06-14T17:06:56.453Z,19.10
2018-06-14T17:09:31.658Z,19.10
2018-06-14T17:12:06.018Z,18.90
2018-06-14T17:14:39.225Z,18.90
2018-06-14T17:17:10.000Z,18.80
2018-06-14T17:19:40.672Z,18.70
2018-06-14T17:22:10.798Z,18.70
2018-06-14T17:24:40.966Z,18.60
2018-06-14T17:27:11.630Z,18.60
2018-06-14T17:29:42.659Z,18.50
2018-06-14T17:32:13.677Z,18.40
2018-06-14T17:34:43.581Z,18.30
2018-06-14T17:37:13.055Z,18.20
2018-06-14T17:39:43.145Z,18.10
2018-06-14T17:42:12.279Z,18.00
2018-06-14T17:44:41.522Z,18.00
2018-06-14T17:47:10.782Z,18.00
2018-06-14T17:49:42.797Z,17.90
2018-06-14T17:52:12.582Z,17.90
2018-06-14T17:54:41.754Z,17.90
2018-06-14T17:57:10.919Z,17.90
2018-06-14T17:59:40.478Z,17.90
2018-06-14T18:02:10.462Z,17.90
2018-06-14T18:04:40.408Z,17.80
2018-06-14T18:07:10.767Z,17.80
2018-06-14T18:09:41.700Z,17.80
2018-06-14T18:12:11.531Z,17.70
2018-06-14T18:14:41.604Z,17.60
2018-06-14T18:17:12.398Z,17.50
2018-06-14T18:19:42.278Z,17.50
2018-06-14T18:22:11.526Z,17.40
2018-06-14T18:24:40.561Z,17.40
2018-06-14T18:27:10.042Z,17.40
2018-06-14T18:29:40.168Z,17.40
2018-06-14T18:32:09.732Z,17.30
2018-06-14T18:34:39.237Z,17.20
2018-06-14T18:37:10.019Z,17.20
2018-06-14T18:39:40.136Z,17.20
2018-06-14T18:42:09.991Z,17.10
2018-06-14T18:44:41.277Z,17.10
2018-06-14T18:47:11.465Z,17.00
2018-06-14T18:49:41.721Z,16.90
2018-06-14T18:52:11.464Z,16.90
2018-06-14T18:54:41.216Z,16.80
2018-06-14T18:57:12.021Z,16.70
2018-06-14T18:59:41.610Z,16.70
2018-06-14T19:02:11.401Z,16.60
2018-06-14T19:04:40.814Z,16.40
2018-06-14T19:07:11.024Z,16.40
2018-06-14T19:09:43.372Z,16.40
2018-06-14T19:12:14.830Z,16.20
2018-06-14T19:14:45.625Z,16.10
2018-06-14T19:17:15.294Z,16.10
2018-06-14T19:19:45.715Z,16.00
2018-06-14T19:22:16.663Z,15.90
2018-06-14T19:24:48.045Z,15.90
2018-06-14T19:27:17.419Z,15.70
2018-06-14T19:29:47.638Z,15.70
2018-06-14T19:32:18.757Z,15.60
2018-06-14T19:34:48.517Z,15.60
2018-06-14T19:37:19.277Z,15.50
2018-06-14T19:39:49.627Z,15.50
2018-06-14T19:42:19.130Z,15.40
2018-06-14T19:44:49.074Z,15.40
2018-06-14T19:47:18.684Z,15.30
2018-06-14T19:49:48.081Z,15.20
2018-06-14T19:52:17.628Z,15.10
2018-06-14T19:54:47.315Z,15.00
2018-06-14T19:57:16.792Z,14.90
2018-06-14T20:02:16.845Z,14.80
2018-06-14T20:04:47.810Z,14.80
2018-06-14T20:07:18.623Z,14.70
2018-06-14T20:09:49.281Z,14.60
2018-06-14T20:12:19.956Z,14.60
2018-06-14T20:14:50.755Z,14.50
2018-06-14T20:17:20.964Z,14.50
2018-06-14T20:19:52.075Z,14.40
2018-06-14T20:22:21.835Z,14.40
2018-06-14T20:24:51.276Z,14.30
2018-06-14T20:27:21.849Z,14.30
2018-06-14T20:29:52.490Z,14.20
2018-06-14T20:32:23.175Z,14.20
2018-06-14T20:34:52.325Z,14.20
2018-06-14T20:37:21.802Z,14.20
2018-06-14T20:39:51.561Z,14.10
2018-06-14T20:42:21.548Z,14.10
2018-06-14T20:44:51.348Z,14.00
2018-06-14T20:47:20.717Z,13.90
2018-06-14T20:49:52.164Z,13.90
2018-06-14T20:52:21.396Z,13.80
2018-06-14T20:54:50.529Z,13.80
2018-06-14T20:57:19.950Z,13.70
2018-06-14T20:59:49.310Z,13.70
2018-06-14T21:02:19.071Z,13.60
2018-06-14T21:04:49.612Z,13.50
2018-06-14T21:07:19.005Z,13.50
2018-06-14T21:09:49.236Z,13.50
2018-06-14T21:12:18.910Z,13.40
2018-06-14T21:14:49.096Z,13.40
2018-06-14T21:17:18.232Z,13.30
2018-06-14T21:19:47.852Z,13.30
2018-06-14T21:24:49.380Z,13.20
2018-06-14T21:27:19.025Z,13.20
2018-06-14T21:29:48.165Z,13.10
2018-06-14T21:32:17.295Z,13.10
2018-06-14T21:34:46.420Z,13.10
2018-06-14T21:37:15.588Z,13.10
2018-06-14T21:39:44.736Z,13.00
2018-06-14T21:42:13.893Z,13.00
2018-06-14T21:44:42.999Z,13.00
2018-06-14T21:47:12.516Z,12.90
2018-06-14T21:49:48.555Z,12.80
2018-06-14T21:52:19.201Z,12.80
2018-06-14T21:54:48.179Z,12.80
2018-06-14T21:57:17.991Z,12.80
2018-06-14T21:59:47.095Z,12.80
2018-06-14T22:02:16.611Z,12.80
2018-06-14T22:04:46.564Z,12.80
2018-06-14T22:07:17.577Z,12.80
2018-06-14T22:09:50.084Z,12.80
2018-06-14T22:12:21.440Z,12.70
2018-06-14T22:14:52.131Z,12.70
2018-06-14T22:17:22.046Z,12.70
2018-06-14T22:19:52.523Z,12.70
2018-06-14T22:22:21.747Z,12.60
2018-06-14T22:24:50.925Z,12.40
2018-06-14T22:27:20.845Z,12.30
2018-06-14T22:29:50.352Z,12.20
2018-06-14T22:32:20.413Z,12.20
2018-06-14T22:35:00.801Z,12.20
2018-06-14T22:37:30.196Z,12.20
2018-06-14T22:39:59.549Z,12.30
2018-06-14T22:42:29.260Z,12.30
2018-06-14T22:44:58.450Z,12.40
2018-06-14T22:47:28.013Z,12.30
2018-06-14T22:49:57.284Z,12.30
2018-06-14T22:53:02.074Z,12.40
2018-06-14T22:55:31.212Z,12.40
2018-06-14T22:58:00.378Z,12.50
2018-06-14T23:00:47.550Z,12.50
2018-06-14T23:03:16.576Z,12.50
2018-06-14T23:05:45.645Z,12.60
2018-06-14T23:08:15.428Z,12.60
2018-06-14T23:10:55.433Z,12.50
2018-06-14T23:13:24.557Z,12.50
2018-06-14T23:15:53.622Z,12.40
2018-06-14T23:18:22.741Z,12.30
2018-06-14T23:20:51.813Z,12.40
2018-06-14T23:23:20.912Z,12.40
2018-06-14T23:25:50.788Z,12.40
2018-06-14T23:28:20.858Z,12.50
2018-06-14T23:30:49.901Z,12.50
2018-06-14T23:33:20.286Z,12.60
2018-06-14T23:35:49.356Z,12.60
2018-06-14T23:38:18.654Z,12.70
2018-06-14T23:40:47.879Z,12.70
2018-06-14T23:43:17.155Z,12.70
2018-06-14T23:45:46.461Z,12.70
2018-06-14T23:48:15.937Z,12.80
2018-06-14T23:50:45.134Z,12.80
2018-06-14T23:53:14.230Z,12.80
2018-06-14T23:55:43.327Z,12.80
2018-06-14T23:58:12.450Z,12.80
